createdAt,value
2022-10-31T00:02:02.177Z,100588.53
2022-10-31T00:04:05.031Z,100618.31
2022-10-31T00:06:07.180Z,100617.34
2022-10-31T00:08:09.130Z,100617.34
2022-10-31T00:10:11.386Z,100614.22
2022-10-31T00:12:13.215Z,100613.75
2022-10-31T00:14:15.346Z,100615.53
2022-10-31T00:16:19.989Z,100623.84
2022-10-31T00:18:21.831Z,100615.66
2022-10-31T00:20:23.687Z,100606.28
2022-10-31T00:22:26.118Z,100611.47
2022-10-31T00:24:27.915Z,100619.47
2022-10-31T00:26:31.268Z,100612.47
2022-10-31T00:28:34.412Z,100612.94
2022-10-31T00:30:36.234Z,100622.38
2022-10-31T00:32:38.027Z,100623.19
2022-10-31T00:34:40.129Z,100619.78
2022-10-31T00:36:42.027Z,100613.59
2022-10-31T00:38:45.111Z,100618.81
2022-10-31T00:40:47.340Z,100599.63
2022-10-31T00:42:49.203Z,100619.13
2022-10-31T00:44:51.070Z,100624.34
2022-10-31T00:46:53.226Z,100619.63
2022-10-31T00:48:55.080Z,100626.78
2022-10-31T00:50:57.751Z,100622.53
2022-10-31T00:52:59.822Z,100635.72
2022-10-31T00:55:01.718Z,100630.34
2022-10-31T00:57:04.104Z,100632.97
2022-10-31T00:59:06.265Z,100624.47
2022-10-31T01:01:08.333Z,100629.84
2022-10-31T01:03:10.281Z,100628.88
2022-10-31T01:05:12.827Z,100620.09
2022-10-31T01:07:15.162Z,100626.94
2022-10-31T01:09:17.131Z,100617.00
2022-10-31T01:11:22.188Z,100628.88
2022-10-31T01:13:24.286Z,100628.56
2022-10-31T01:15:26.168Z,100627.41
2022-10-31T01:17:28.327Z,100602.69
2022-10-31T01:19:30.173Z,100630.00
2022-10-31T01:21:32.030Z,100616.84
2022-10-31T01:23:34.988Z,100632.63
2022-10-31T01:25:36.794Z,100634.72
2022-10-31T01:27:38.783Z,100634.25
2022-10-31T01:29:40.880Z,100625.13
2022-10-31T01:31:42.673Z,100633.22
2022-10-31T01:33:44.728Z,100629.66
2022-10-31T01:35:46.861Z,100627.22
2022-10-31T01:37:48.659Z,100634.53
2022-10-31T01:39:50.539Z,100632.09
2022-10-31T01:41:54.360Z,100642.00
2022-10-31T01:43:59.131Z,100632.41
2022-10-31T01:46:01.166Z,100638.25
2022-10-31T01:48:03.550Z,100644.09
2022-10-31T01:50:12.455Z,100635.31
2022-10-31T01:52:22.294Z,100643.31
2022-10-31T01:54:30.395Z,100644.94
2022-10-31T01:56:34.635Z,100635.63
2022-10-31T01:58:36.939Z,100628.13
2022-10-31T02:00:40.657Z,100634.34
2022-10-31T02:02:43.864Z,100612.25
2022-10-31T02:04:48.534Z,100619.91
2022-10-31T02:06:59.601Z,100638.31
2022-10-31T02:09:03.446Z,100637.81
2022-10-31T02:11:06.352Z,100639.44
2022-10-31T02:13:09.609Z,100642.53
2022-10-31T02:15:11.484Z,100632.78
2022-10-31T02:17:14.045Z,100637.34
2022-10-31T02:19:44.957Z,100629.06
2022-10-31T02:22:05.178Z,100623.19
2022-10-31T02:25:02.715Z,100628.25
2022-10-31T02:27:10.392Z,100639.47
2022-10-31T02:29:15.137Z,100638.16
2022-10-31T02:31:29.926Z,100639.00
2022-10-31T02:33:41.297Z,100644.16
2022-10-31T02:35:50.814Z,100629.53
2022-10-31T02:38:03.793Z,100633.91
2022-10-31T02:40:11.584Z,100643.03
2022-10-31T02:42:31.571Z,100636.22
2022-10-31T02:44:56.150Z,100620.09
2022-10-31T02:47:09.960Z,100638.16
2022-10-31T02:49:51.530Z,100630.50
2022-10-31T02:51:53.526Z,100636.53
2022-10-31T02:53:55.694Z,100640.44
2022-10-31T02:56:01.303Z,100647.78
2022-10-31T02:58:12.217Z,100628.06
2022-10-31T03:00:14.757Z,100644.50
2022-10-31T03:02:31.573Z,100653.31
2022-10-31T03:04:53.780Z,100656.22
2022-10-31T03:07:44.428Z,100661.44
2022-10-31T03:10:05.555Z,100660.75
2022-10-31T03:12:43.142Z,100657.69
2022-10-31T03:15:20.655Z,100664.19
2022-10-31T03:17:29.429Z,100677.38
2022-10-31T03:19:38.783Z,100662.41
2022-10-31T03:21:47.463Z,100653.63
2022-10-31T03:23:52.596Z,100665.50
2022-10-31T03:25:55.903Z,100671.22
2022-10-31T03:28:01.000Z,100662.88
2022-10-31T03:30:06.599Z,100663.69
2022-10-31T03:32:20.836Z,100671.84
2022-10-31T03:34:24.368Z,100661.75
2022-10-31T03:36:28.353Z,100676.88
2022-10-31T03:38:30.826Z,100666.16
2022-10-31T03:40:36.156Z,100676.22
2022-10-31T03:42:42.359Z,100682.06
2022-10-31T03:44:51.089Z,100671.19
2022-10-31T03:46:52.998Z,100653.44
2022-10-31T03:48:55.452Z,100677.03
2022-10-31T03:51:10.483Z,100679.78
2022-10-31T03:53:21.721Z,100669.19
2022-10-31T03:55:40.329Z,100683.69
2022-10-31T03:57:49.071Z,100682.03
2022-10-31T04:00:04.713Z,100684.16
2022-10-31T04:02:11.799Z,100676.53
2022-10-31T04:04:15.181Z,100675.88
2022-10-31T04:06:20.092Z,100674.91
2022-10-31T04:08:27.474Z,100673.56
2022-10-31T04:10:32.945Z,100684.47
2022-10-31T04:12:37.066Z,100682.81
2022-10-31T04:14:41.475Z,100679.72
2022-10-31T04:16:44.967Z,100679.94
2022-10-31T04:18:46.954Z,100670.81
2022-10-31T04:20:51.888Z,100671.16
2022-10-31T04:22:53.811Z,100690.97
2022-10-31T04:24:55.590Z,100687.88
2022-10-31T04:26:57.877Z,100667.22
2022-10-31T04:28:59.677Z,100668.22
2022-10-31T04:31:01.976Z,100671.28
2022-10-31T04:33:04.150Z,100689.66
2022-10-31T04:35:06.484Z,100679.75
2022-10-31T04:37:08.326Z,100650.47
2022-10-31T04:39:10.692Z,100693.56
2022-10-31T04:41:12.481Z,100680.25
2022-10-31T04:43:14.485Z,100687.72
2022-10-31T04:45:20.107Z,100685.47
2022-10-31T04:47:23.608Z,100686.59
2022-10-31T04:49:25.392Z,100691.97
2022-10-31T04:51:27.583Z,100699.47
2022-10-31T04:53:30.170Z,100687.72
2022-10-31T04:55:32.479Z,100699.28
2022-10-31T04:57:42.748Z,100691.78
2022-10-31T04:59:44.650Z,100705.44
2022-10-31T05:01:46.539Z,100703.84
2022-10-31T05:03:48.852Z,100700.09
2022-10-31T05:05:50.833Z,100696.53
2022-10-31T05:07:53.390Z,100698.97
2022-10-31T05:09:55.492Z,100707.88
2022-10-31T05:11:57.324Z,100699.09
2022-10-31T05:13:59.169Z,100700.25
2022-10-31T05:16:01.254Z,100705.31
2022-10-31T05:18:03.566Z,100712.13
2022-10-31T05:20:06.251Z,100707.25
2022-10-31T05:22:08.458Z,100698.94
2022-10-31T05:24:10.421Z,100699.25
2022-10-31T05:26:12.316Z,100704.94
2022-10-31T05:28:14.419Z,100705.91
2022-10-31T05:30:19.704Z,100710.97
2022-10-31T05:32:21.559Z,100703.81
2022-10-31T05:34:23.679Z,100712.25
2022-10-31T05:36:25.493Z,100692.22
2022-10-31T05:38:27.422Z,100713.56
2022-10-31T05:40:30.059Z,100713.06
2022-10-31T05:42:31.958Z,100719.56
2022-10-31T05:44:33.836Z,100698.56
2022-10-31T05:46:35.981Z,100697.28
2022-10-31T05:48:37.822Z,100724.09
2022-10-31T05:50:39.642Z,100700.88
2022-10-31T05:52:41.781Z,100720.06
2022-10-31T05:54:43.689Z,100708.16
2022-10-31T05:56:45.563Z,100701.19
2022-10-31T05:58:47.728Z,100696.16
2022-10-31T06:00:49.599Z,100699.38
2022-10-31T06:02:59.996Z,100728.97
2022-10-31T06:05:03.442Z,100718.31
2022-10-31T06:07:05.356Z,100711.81
2022-10-31T06:09:07.242Z,100709.09
2022-10-31T06:11:09.383Z,100712.88
2022-10-31T06:13:11.629Z,100728.16
2022-10-31T06:15:13.820Z,100722.88
2022-10-31T06:17:16.252Z,100738.88
2022-10-31T06:19:18.109Z,100733.84
2022-10-31T06:21:20.327Z,100719.00
2022-10-31T06:23:22.471Z,100729.63
2022-10-31T06:25:24.855Z,100737.66
2022-10-31T06:27:27.555Z,100732.59
2022-10-31T06:29:29.573Z,100733.06
2022-10-31T06:31:31.418Z,100734.06
2022-10-31T06:33:35.076Z,100724.41
2022-10-31T06:35:37.189Z,100721.66
2022-10-31T06:37:39.134Z,100731.88
2022-10-31T06:39:41.178Z,100730.91
2022-10-31T06:41:43.330Z,100728.81
2022-10-31T06:43:48.330Z,100726.31
2022-10-31T06:45:50.321Z,100732.09
2022-10-31T06:48:15.408Z,100737.56
2022-10-31T06:50:16.332Z,100720.31
2022-10-31T06:52:18.296Z,100711.38
2022-10-31T06:54:20.416Z,100730.03
2022-10-31T06:56:22.457Z,100722.63
2022-10-31T06:58:24.532Z,100735.38
2022-10-31T07:00:29.482Z,100721.75
2022-10-31T07:02:31.374Z,100732.16
2022-10-31T07:04:33.522Z,100709.00
2022-10-31T07:06:35.623Z,100728.69
2022-10-31T07:08:37.510Z,100742.53
2022-10-31T07:10:42.020Z,100699.13
2022-10-31T07:12:44.253Z,100731.19
2022-10-31T07:14:46.235Z,100702.72
2022-10-31T07:16:52.116Z,100718.69
2022-10-31T07:18:54.240Z,100733.22
2022-10-31T07:20:56.155Z,100742.06
2022-10-31T07:22:58.606Z,100728.19
2022-10-31T07:25:01.018Z,100743.91
2022-10-31T07:27:02.900Z,100745.56
2022-10-31T07:29:04.902Z,100730.97
2022-10-31T07:31:07.356Z,100743.16
2022-10-31T07:33:09.575Z,100738.94
2022-10-31T07:35:18.089Z,100734.75
2022-10-31T07:37:20.285Z,100731.72
2022-10-31T07:39:22.148Z,100735.78
2022-10-31T07:41:24.457Z,100736.94
2022-10-31T07:43:27.184Z,100734.19
2022-10-31T07:45:32.360Z,100742.09
2022-10-31T07:47:51.736Z,100753.16
2022-10-31T07:49:53.951Z,100747.19
2022-10-31T07:51:56.278Z,100749.72
2022-10-31T07:53:58.261Z,100751.69
2022-10-31T07:56:00.514Z,100751.69
2022-10-31T07:58:08.330Z,100753.41
2022-10-31T08:00:11.237Z,100758.88
2022-10-31T08:02:13.430Z,100753.91
2022-10-31T08:04:15.310Z,100769.47
2022-10-31T08:06:17.148Z,100757.22
2022-10-31T08:08:19.311Z,100739.09
2022-10-31T08:10:21.962Z,100769.94
2022-10-31T08:12:23.866Z,100757.06
2022-10-31T08:14:26.026Z,100767.13
2022-10-31T08:16:28.382Z,100767.34
2022-10-31T08:18:30.870Z,100763.03
2022-10-31T08:20:32.957Z,100767.22
2022-10-31T08:22:37.543Z,100758.25
2022-10-31T08:24:41.662Z,100759.19
2022-10-31T08:26:43.969Z,100765.34
2022-10-31T08:28:46.070Z,100765.78
2022-10-31T08:30:48.440Z,100772.25
2022-10-31T08:33:20.153Z,100767.91
2022-10-31T08:35:21.934Z,100748.75
2022-10-31T08:37:25.230Z,100761.38
2022-10-31T08:39:27.342Z,100739.16
2022-10-31T08:41:29.638Z,100778.94
2022-10-31T08:43:31.432Z,100763.44
2022-10-31T08:45:35.121Z,100781.84
2022-10-31T08:47:36.980Z,100784.38
2022-10-31T08:49:39.054Z,100777.00
2022-10-31T08:51:41.238Z,100774.31
2022-10-31T08:53:43.594Z,100786.69
2022-10-31T08:55:46.833Z,100785.75
2022-10-31T08:57:49.496Z,100776.19
2022-10-31T08:59:51.920Z,100778.56
2022-10-31T09:01:53.989Z,100735.06
2022-10-31T09:03:57.459Z,100785.56
2022-10-31T09:06:01.967Z,100739.88
2022-10-31T09:08:14.832Z,100777.97
2022-10-31T09:10:18.520Z,100775.50
2022-10-31T09:12:20.641Z,100778.16
2022-10-31T09:14:22.462Z,100785.75
2022-10-31T09:16:24.662Z,100753.22
2022-10-31T09:18:29.019Z,100780.84
2022-10-31T09:20:32.414Z,100754.53
2022-10-31T09:22:35.736Z,100748.06
2022-10-31T09:24:37.818Z,100793.38
2022-10-31T09:26:39.629Z,100760.31
2022-10-31T09:28:41.862Z,100789.47
2022-10-31T09:30:43.806Z,100747.03
2022-10-31T09:32:45.654Z,100743.91
2022-10-31T09:34:49.131Z,100791.78
2022-10-31T09:36:54.652Z,100797.75
2022-10-31T09:38:56.538Z,100754.84
2022-10-31T09:41:20.284Z,100757.56
2022-10-31T09:43:31.153Z,100798.47
2022-10-31T09:46:15.185Z,100798.91
2022-10-31T09:48:43.755Z,100786.44
2022-10-31T09:50:50.885Z,100796.81
2022-10-31T09:53:04.168Z,100794.91
2022-10-31T09:55:20.244Z,100797.66
2022-10-31T09:57:34.040Z,100797.72
2022-10-31T09:59:40.058Z,100780.69
2022-10-31T10:02:25.899Z,100795.75
2022-10-31T10:04:46.709Z,100792.88
2022-10-31T10:06:52.348Z,100773.81
2022-10-31T10:08:54.855Z,100761.50
2022-10-31T10:11:17.661Z,100761.66
2022-10-31T10:13:41.707Z,100790.38
2022-10-31T10:16:04.976Z,100785.41
2022-10-31T10:18:37.602Z,100789.94
2022-10-31T10:21:05.099Z,100781.16
2022-10-31T10:23:47.195Z,100779.56
2022-10-31T10:26:00.238Z,100786.25
2022-10-31T10:28:13.089Z,100788.84
2022-10-31T10:30:21.969Z,100787.13
2022-10-31T10:32:31.566Z,100788.75
2022-10-31T10:34:40.619Z,100770.13
2022-10-31T10:36:47.804Z,100777.69
2022-10-31T10:38:54.796Z,100782.63
2022-10-31T10:40:58.884Z,100769.78
2022-10-31T10:43:32.915Z,100782.47
2022-10-31T10:45:53.958Z,100741.25
2022-10-31T10:48:11.614Z,100767.13
2022-10-31T10:50:13.459Z,100779.72
2022-10-31T10:52:50.880Z,100763.72
2022-10-31T10:55:16.303Z,100776.31
2022-10-31T10:57:37.239Z,100776.75
2022-10-31T10:59:39.303Z,100737.88
2022-10-31T11:01:42.840Z,100734.44
2022-10-31T11:03:44.960Z,100756.81
2022-10-31T11:06:02.914Z,100767.38
2022-10-31T11:08:07.002Z,100741.63
2022-10-31T11:10:17.610Z,100766.47
2022-10-31T11:12:32.624Z,100761.44
2022-10-31T11:14:43.635Z,100742.66
2022-10-31T11:16:48.924Z,100762.13
2022-10-31T11:18:51.028Z,100715.06
2022-10-31T11:21:00.700Z,100758.97
2022-10-31T11:23:27.152Z,100765.50
2022-10-31T11:25:29.103Z,100738.31
2022-10-31T11:27:31.084Z,100761.47
2022-10-31T11:29:33.362Z,100763.03
2022-10-31T11:31:36.561Z,100727.56
2022-10-31T11:33:38.278Z,100765.28
2022-10-31T11:35:41.382Z,100759.78
2022-10-31T11:37:45.535Z,100752.56
2022-10-31T11:39:57.202Z,100730.88
2022-10-31T11:42:08.512Z,100752.19
2022-10-31T11:44:21.458Z,100757.22
2022-10-31T11:46:26.807Z,100764.84
2022-10-31T11:48:29.185Z,100757.81
2022-10-31T11:50:41.231Z,100762.19
2022-10-31T11:52:43.275Z,100754.19
2022-10-31T11:54:57.079Z,100740.13
2022-10-31T11:56:59.203Z,100719.13
2022-10-31T11:59:05.293Z,100739.03
2022-10-31T12:01:31.417Z,100740.47
2022-10-31T12:03:43.578Z,100756.31
2022-10-31T12:05:49.679Z,100746.75
2022-10-31T12:07:53.466Z,100758.88
2022-10-31T12:09:56.174Z,100725.50
2022-10-31T12:12:36.671Z,100743.97
2022-10-31T12:15:09.673Z,100752.84
2022-10-31T12:17:23.557Z,100741.16
2022-10-31T12:19:51.255Z,100744.16
2022-10-31T12:22:35.945Z,100744.09
2022-10-31T12:25:08.924Z,100745.00
2022-10-31T12:27:22.430Z,100739.75
2022-10-31T12:29:24.464Z,100741.75
2022-10-31T12:32:05.099Z,100745.88
2022-10-31T12:34:26.018Z,100744.69
2022-10-31T12:36:30.941Z,100743.53
2022-10-31T12:39:14.943Z,100741.16
2022-10-31T12:41:49.657Z,100739.09
2022-10-31T12:43:58.696Z,100732.16
2022-10-31T12:46:02.972Z,100728.06
2022-10-31T12:48:29.935Z,100727.69
2022-10-31T12:50:56.374Z,100728.75
2022-10-31T12:53:13.332Z,100736.28
2022-10-31T12:55:48.853Z,100742.22
2022-10-31T12:57:59.412Z,100733.59
2022-10-31T13:00:13.096Z,100726.56
2022-10-31T13:02:36.714Z,100737.38
2022-10-31T13:05:04.724Z,100737.47
2022-10-31T13:07:13.275Z,100726.63
2022-10-31T13:09:20.732Z,100719.88
2022-10-31T13:11:44.655Z,100739.47
2022-10-31T13:13:53.566Z,100737.09
2022-10-31T13:16:02.507Z,100730.88
2022-10-31T13:18:14.000Z,100729.06
2022-10-31T13:20:42.033Z,100731.84
2022-10-31T13:22:47.954Z,100719.44
2022-10-31T13:25:00.484Z,100712.34
2022-10-31T13:27:12.321Z,100706.16
2022-10-31T13:29:32.692Z,100734.59
2022-10-31T13:31:34.995Z,100696.19
2022-10-31T13:33:44.299Z,100714.56
2022-10-31T13:35:52.135Z,100735.13
2022-10-31T13:38:01.572Z,100699.72
2022-10-31T13:40:06.933Z,100733.22
2022-10-31T13:42:24.479Z,100724.84
2022-10-31T13:44:28.903Z,100727.78
2022-10-31T13:46:34.118Z,100740.41
2022-10-31T13:48:40.261Z,100703.38
2022-10-31T13:50:44.270Z,100706.38
2022-10-31T13:52:46.615Z,100721.63
2022-10-31T13:54:56.880Z,100730.44
2022-10-31T13:56:59.261Z,100694.88
2022-10-31T13:59:04.190Z,100733.91
2022-10-31T14:01:12.242Z,100728.69
2022-10-31T14:03:36.263Z,100690.06
2022-10-31T14:05:43.470Z,100720.66
2022-10-31T14:07:47.586Z,100681.03
2022-10-31T14:09:52.314Z,100723.53
2022-10-31T14:11:56.185Z,100689.84
2022-10-31T14:13:59.898Z,100720.03
2022-10-31T14:16:06.116Z,100735.84
2022-10-31T14:18:39.158Z,100739.38
2022-10-31T14:20:42.957Z,100732.06
2022-10-31T14:22:45.000Z,100711.63
2022-10-31T14:24:47.347Z,100732.47
2022-10-31T14:27:01.884Z,100730.41
2022-10-31T14:29:16.065Z,100722.50
2022-10-31T14:31:39.698Z,100723.72
2022-10-31T14:33:43.589Z,100722.53
2022-10-31T14:35:54.916Z,100735.13
2022-10-31T14:38:16.179Z,100735.22
2022-10-31T14:40:32.669Z,100722.72
2022-10-31T14:43:05.540Z,100736.31
2022-10-31T14:45:37.226Z,100730.41
2022-10-31T14:47:48.119Z,100707.16
2022-10-31T14:49:58.925Z,100735.22
2022-10-31T14:52:02.380Z,100722.25
2022-10-31T14:54:07.338Z,100737.66
2022-10-31T14:56:12.445Z,100707.19
2022-10-31T14:58:21.501Z,100722.47
2022-10-31T15:00:25.732Z,100739.44
2022-10-31T15:02:53.621Z,100731.69
2022-10-31T15:04:56.759Z,100738.63
2022-10-31T15:07:13.635Z,100730.47
2022-10-31T15:09:33.299Z,100739.50
2022-10-31T15:11:39.140Z,100744.47
2022-10-31T15:13:50.096Z,100745.28
2022-10-31T15:15:55.703Z,100725.34
2022-10-31T15:18:04.713Z,100724.16
2022-10-31T15:20:07.387Z,100738.41
2022-10-31T15:22:15.429Z,100738.97
2022-10-31T15:24:19.596Z,100720.97
2022-10-31T15:26:24.589Z,100735.47
2022-10-31T15:28:27.224Z,100724.50
2022-10-31T15:30:30.034Z,100736.06
2022-10-31T15:32:31.878Z,100721.66
2022-10-31T15:34:33.669Z,100745.91
2022-10-31T15:36:38.633Z,100742.66
2022-10-31T15:38:40.623Z,100742.50
2022-10-31T15:40:56.564Z,100734.44
2022-10-31T15:43:02.974Z,100745.84
2022-10-31T15:45:10.530Z,100749.63
2022-10-31T15:47:21.684Z,100735.94
2022-10-31T15:49:35.509Z,100734.44
2022-10-31T15:51:38.991Z,100749.63
2022-10-31T15:53:53.614Z,100747.97
2022-10-31T15:55:59.215Z,100746.69
2022-10-31T15:58:16.294Z,100737.22
2022-10-31T16:00:41.729Z,100728.69
2022-10-31T16:02:43.847Z,100730.16
2022-10-31T16:04:55.951Z,100738.16
2022-10-31T16:07:23.471Z,100760.97
2022-10-31T16:09:26.478Z,100755.97
2022-10-31T16:11:38.102Z,100723.81
2022-10-31T16:13:58.042Z,100719.06
2022-10-31T16:16:32.964Z,100756.91
2022-10-31T16:18:27.138Z,100747.84
2022-10-31T16:20:33.001Z,100753.56
2022-10-31T16:22:39.817Z,100738.94
2022-10-31T16:24:49.258Z,100765.34
2022-10-31T16:26:53.978Z,100745.84
2022-10-31T16:29:05.711Z,100745.84
2022-10-31T16:31:15.297Z,100758.44
2022-10-31T16:33:31.926Z,100761.63
2022-10-31T16:35:37.710Z,100756.56
2022-10-31T16:37:42.978Z,100755.34
2022-10-31T16:39:44.891Z,100751.78
2022-10-31T16:41:54.250Z,100758.13
2022-10-31T16:43:56.186Z,100755.59
2022-10-31T16:45:58.050Z,100756.19
2022-10-31T16:48:10.616Z,100763.44
2022-10-31T16:50:15.274Z,100743.41
2022-10-31T16:52:18.447Z,100740.78
2022-10-31T16:54:21.129Z,100755.66
2022-10-31T16:56:31.065Z,100758.91
2022-10-31T16:58:34.716Z,100743.19
2022-10-31T17:00:38.334Z,100764.97
2022-10-31T17:02:40.647Z,100758.53
2022-10-31T17:04:43.874Z,100754.81
2022-10-31T17:06:48.734Z,100762.19
2022-10-31T17:08:50.599Z,100730.59
2022-10-31T17:10:54.748Z,100751.69
2022-10-31T17:12:58.231Z,100740.13
2022-10-31T17:15:00.674Z,100743.50
2022-10-31T17:17:02.527Z,100717.53
2022-10-31T17:19:05.052Z,100760.56
2022-10-31T17:21:07.265Z,100732.59
2022-10-31T17:23:11.386Z,100769.63
2022-10-31T17:25:17.469Z,100773.09
2022-10-31T17:27:19.537Z,100721.75
2022-10-31T17:29:21.820Z,100734.06
2022-10-31T17:31:29.608Z,100735.69
2022-10-31T17:33:31.718Z,100755.72
2022-10-31T17:35:33.631Z,100726.75
2022-10-31T17:37:36.480Z,100739.06
2022-10-31T17:39:39.962Z,100765.72
2022-10-31T17:41:41.729Z,100750.97
2022-10-31T17:43:47.435Z,100726.25
2022-10-31T17:45:49.502Z,100720.22
2022-10-31T17:47:53.151Z,100719.19
2022-10-31T17:49:55.389Z,100760.56
2022-10-31T17:51:57.241Z,100759.72
2022-10-31T17:53:59.076Z,100751.19
2022-10-31T17:56:02.366Z,100767.56
2022-10-31T17:58:04.484Z,100765.72
2022-10-31T18:00:09.629Z,100767.38
2022-10-31T18:02:12.608Z,100762.56
2022-10-31T18:04:15.104Z,100727.97
2022-10-31T18:06:17.531Z,100757.69
2022-10-31T18:08:19.786Z,100739.75
2022-10-31T18:10:21.755Z,100734.59
2022-10-31T18:12:24.156Z,100760.50
2022-10-31T18:14:26.540Z,100746.75
2022-10-31T18:16:29.419Z,100757.94
2022-10-31T18:18:31.325Z,100749.09
2022-10-31T18:20:33.719Z,100755.03
2022-10-31T18:22:35.670Z,100720.81
2022-10-31T18:24:39.260Z,100723.13
2022-10-31T18:26:41.490Z,100745.97
2022-10-31T18:28:44.372Z,100761.63
2022-10-31T18:30:46.480Z,100738.41
2022-10-31T18:32:53.170Z,100746.22
2022-10-31T18:34:55.127Z,100726.50
2022-10-31T18:36:57.007Z,100752.13
2022-10-31T18:38:59.326Z,100766.53
2022-10-31T18:41:01.346Z,100755.81
2022-10-31T18:43:11.679Z,100721.19
2022-10-31T18:45:32.616Z,100742.97
2022-10-31T18:47:37.499Z,100745.78
2022-10-31T18:49:39.634Z,100728.41
2022-10-31T18:51:41.821Z,100726.38
2022-10-31T18:53:53.317Z,100754.41
2022-10-31T18:55:55.141Z,100759.53
2022-10-31T18:57:57.327Z,100723.81
2022-10-31T18:59:59.188Z,100746.28
2022-10-31T19:02:01.380Z,100716.72
2022-10-31T19:04:03.931Z,100724.94
2022-10-31T19:06:07.682Z,100744.28
2022-10-31T19:08:09.751Z,100734.19
2022-10-31T19:10:12.027Z,100764.22
2022-10-31T19:12:13.981Z,100744.16
2022-10-31T19:14:15.931Z,100753.72
2022-10-31T19:16:18.453Z,100750.91
2022-10-31T19:18:20.723Z,100748.47
2022-10-31T19:20:24.403Z,100750.53
2022-10-31T19:22:26.638Z,100749.06
2022-10-31T19:24:29.143Z,100746.00
2022-10-31T19:26:33.237Z,100747.28
2022-10-31T19:28:37.801Z,100752.03
2022-10-31T19:30:39.661Z,100744.84
2022-10-31T19:32:41.614Z,100741.53
2022-10-31T19:34:45.007Z,100734.78
2022-10-31T19:36:47.044Z,100749.75
2022-10-31T19:38:51.376Z,100754.22
2022-10-31T19:41:00.104Z,100751.03
2022-10-31T19:43:01.930Z,100754.69
2022-10-31T19:45:05.004Z,100731.22
2022-10-31T19:47:07.228Z,100747.59
2022-10-31T19:49:09.953Z,100732.56
2022-10-31T19:51:14.151Z,100739.34
2022-10-31T19:53:16.921Z,100732.44
2022-10-31T19:55:18.699Z,100741.00
2022-10-31T19:57:35.819Z,100745.41
2022-10-31T19:59:42.608Z,100742.06
2022-10-31T20:01:44.497Z,100741.38
2022-10-31T20:03:47.243Z,100732.56
2022-10-31T20:05:50.279Z,100733.97
2022-10-31T20:07:52.153Z,100714.72
2022-10-31T20:09:54.070Z,100717.84
2022-10-31T20:11:57.072Z,100701.53
2022-10-31T20:13:59.978Z,100712.41
2022-10-31T20:16:10.362Z,100707.31
2022-10-31T20:18:12.488Z,100722.25
2022-10-31T20:20:14.452Z,100711.34
2022-10-31T20:22:16.259Z,100715.97
2022-10-31T20:24:18.451Z,100696.97
2022-10-31T20:26:20.580Z,100715.41
2022-10-31T20:28:23.215Z,100713.78
2022-10-31T20:30:26.448Z,100706.94
2022-10-31T20:32:28.260Z,100705.22
2022-10-31T20:34:30.254Z,100678.56
2022-10-31T20:36:32.462Z,100725.34
2022-10-31T20:38:37.940Z,100720.97
2022-10-31T20:40:39.894Z,100705.44
2022-10-31T20:42:42.111Z,100708.13
2022-10-31T20:44:44.417Z,100714.59
2022-10-31T20:46:46.282Z,100720.41
2022-10-31T20:48:50.071Z,100715.16
2022-10-31T20:50:59.415Z,100712.75
2022-10-31T20:53:01.736Z,100699.41
2022-10-31T20:55:05.491Z,100722.25
2022-10-31T20:57:07.610Z,100719.47
2022-10-31T20:59:09.586Z,100730.09
2022-10-31T21:01:23.317Z,100719.44
2022-10-31T21:03:26.443Z,100721.41
2022-10-31T21:05:28.343Z,100716.69
2022-10-31T21:07:34.909Z,100709.38
2022-10-31T21:09:36.898Z,100716.00
2022-10-31T21:11:38.763Z,100718.88
2022-10-31T21:13:42.871Z,100711.81
2022-10-31T21:15:45.034Z,100703.38
2022-10-31T21:17:49.335Z,100708.34
2022-10-31T21:19:51.435Z,100704.78
2022-10-31T21:21:54.818Z,100707.53
2022-10-31T21:23:59.009Z,100704.41
2022-10-31T21:26:09.390Z,100705.31
2022-10-31T21:28:12.196Z,100707.06
2022-10-31T21:30:14.071Z,100705.56
2022-10-31T21:32:16.230Z,100710.53
2022-10-31T21:34:18.152Z,100699.31
2022-10-31T21:36:20.305Z,100698.97
2022-10-31T21:38:22.459Z,100665.28
2022-10-31T21:40:27.790Z,100699.75
2022-10-31T21:42:29.798Z,100664.78
2022-10-31T21:44:33.788Z,100688.91
2022-10-31T21:46:37.550Z,100695.84
2022-10-31T21:48:43.482Z,100669.66
2022-10-31T21:50:45.620Z,100657.72
2022-10-31T21:52:47.426Z,100707.59
2022-10-31T21:54:49.298Z,100693.28
2022-10-31T21:56:51.820Z,100645.09
2022-10-31T21:58:54.382Z,100682.41
2022-10-31T22:01:01.685Z,100663.25
2022-10-31T22:03:03.997Z,100648.31
2022-10-31T22:05:06.083Z,100649.25
2022-10-31T22:07:08.195Z,100694.44
2022-10-31T22:09:13.627Z,100684.25
2022-10-31T22:11:17.548Z,100686.00
2022-10-31T22:13:19.425Z,100678.69
2022-10-31T22:15:23.716Z,100651.09
2022-10-31T22:17:25.558Z,100684.25
2022-10-31T22:19:27.414Z,100681.00
2022-10-31T22:21:29.611Z,100655.53
2022-10-31T22:23:31.762Z,100666.88
2022-10-31T22:25:37.480Z,100670.09
2022-10-31T22:27:39.636Z,100671.63
2022-10-31T22:29:41.614Z,100674.06
2022-10-31T22:31:46.106Z,100665.47
2022-10-31T22:33:48.890Z,100662.13
2022-10-31T22:35:50.729Z,100639.53
2022-10-31T22:37:52.682Z,100659.56
2022-10-31T22:39:54.833Z,100651.34
2022-10-31T22:41:56.621Z,100673.91
2022-10-31T22:43:59.184Z,100668.59
2022-10-31T22:46:05.363Z,100668.03
2022-10-31T22:48:07.223Z,100666.66
2022-10-31T22:50:09.238Z,100659.81
2022-10-31T22:52:11.389Z,100665.72
2022-10-31T22:54:16.542Z,100662.00
2022-10-31T22:56:21.147Z,100658.53
2022-10-31T22:58:23.258Z,100600.03
2022-10-31T23:00:25.817Z,100661.09
2022-10-31T23:02:28.456Z,100668.03
2022-10-31T23:04:30.565Z,100665.38
2022-10-31T23:06:33.228Z,100671.75
2022-10-31T23:08:37.748Z,100659.91
2022-10-31T23:10:42.225Z,100653.56
2022-10-31T23:13:02.602Z,100653.44
2022-10-31T23:15:05.060Z,100671.88
2022-10-31T23:17:07.205Z,100672.34
2022-10-31T23:19:10.161Z,100665.94
2022-10-31T23:21:31.849Z,100667.81
2022-10-31T23:23:36.574Z,100665.94
2022-10-31T23:25:57.214Z,100661.53
2022-10-31T23:27:58.994Z,100658.03
2022-10-31T23:30:01.516Z,100644.72
2022-10-31T23:32:05.044Z,100666.19
2022-10-31T23:34:06.867Z,100646.03
2022-10-31T23:36:09.115Z,100657.84
2022-10-31T23:38:11.013Z,100656.22
2022-10-31T23:40:12.787Z,100642.78
2022-10-31T23:42:15.730Z,100645.09
2022-10-31T23:44:17.931Z,100656.06
2022-10-31T23:46:19.900Z,100656.22
2022-10-31T23:48:22.213Z,100646.47
2022-10-31T23:50:24.035Z,100643.00
2022-10-31T23:52:25.799Z,100644.16
2022-10-31T23:54:28.322Z,100632.56
2022-10-31T23:56:30.323Z,100637.44
2022-10-31T23:58:32.111Z,100650.41
